»·PEaware :: N744PW KSBA-KOXR

N744PW :: KSBA-KOXR

FLIGHT INFORMATION

Flight Status: Arrived
Operator: Privately registered:
United States
More flights under this callsign
Pilot: Anonymous 31222 (31222)
Aircraft: CESSNA 172 SKYHAWK
(C172)
More flights by this aircraft type
Origin: KSBA Santa Barbara Mun
United States
Destination: KOXR Oxnard
United States
More flights between these airports :: More routes between these airports
Route: KWANG CMA
File this flight plan on PilotEdge
Remarks:
Altitude:
(Current/Filed)
3,000ft
Speed:
(Current/Filed)
100kts
Departed: 09-Feb-21 02:41 PM
Arrived: 09-Feb-21 03:25 PM
Distance/Time
Traveled:
34nm/0:44
Distance/Time
To Go:
Arrived

Flight Plot

Page will automatically refresh every two minutes.


Map Options




Map Legend


Flown Route
Filed Route
Departure Airport
Arrival Airport
Navaid (VOR, NDB)
Fix

Horizontal Profiles

Position Reports

Time Latitude Longitude Heading Altitude Ground
Speed
09-Feb-21 14:17 34.432773 -119.835044 268 13ft 0kts
09-Feb-21 14:18 34.432773 -119.835044 268 13ft 0kts
09-Feb-21 14:19 34.432773 -119.835044 268 13ft 0kts
09-Feb-21 14:20 34.432773 -119.835044 267 13ft 0kts
09-Feb-21 14:21 34.432773 -119.835044 268 13ft 0kts
09-Feb-21 14:22 34.432773 -119.835044 268 13ft 0kts
09-Feb-21 14:23 34.432773 -119.835044 268 13ft 0kts
09-Feb-21 14:24 34.432773 -119.835044 268 13ft 0kts
09-Feb-21 14:25 34.432773 -119.835044 268 13ft 0kts
09-Feb-21 14:26 34.432773 -119.835044 268 13ft 0kts
09-Feb-21 14:27 34.432773 -119.835044 268 13ft 0kts
09-Feb-21 14:28 34.432773 -119.835044 268 13ft 0kts
09-Feb-21 14:29 34.432773 -119.835044 268 13ft 0kts
09-Feb-21 14:30 34.432773 -119.835044 268 13ft 0kts
09-Feb-21 14:31 34.432773 -119.835044 268 13ft 0kts
09-Feb-21 14:32 34.432773 -119.835044 268 13ft 0kts
09-Feb-21 14:33 34.432773 -119.835044 268 13ft 0kts
09-Feb-21 14:34 34.432773 -119.835044 268 13ft 0kts
09-Feb-21 14:35 34.432473 -119.835555 193 13ft 5kts
09-Feb-21 14:36 34.431326 -119.837723 251 13ft 10kts
09-Feb-21 14:37 34.430795 -119.839722 253 13ft 0kts
09-Feb-21 14:38 34.430795 -119.839722 253 13ft 0kts
09-Feb-21 14:39 34.430795 -119.839722 253 13ft 0kts
09-Feb-21 14:40 34.427847 -119.839518 166 12ft 62kts
09-Feb-21 14:41 34.406878 -119.833594 166 828ft 81kts
09-Feb-21 14:42 34.385624 -119.823143 159 1702ft 84kts
09-Feb-21 14:43 34.363303 -119.813593 162 2536ft 87kts
09-Feb-21 14:44 34.348024 -119.794371 83 3306ft 92kts
09-Feb-21 14:45 34.331272 -119.763460 108 3162ft 133kts
09-Feb-21 14:46 34.317318 -119.723368 110 3041ft 112kts
09-Feb-21 14:48 34.305288 -119.685411 110 2846ft 122kts
09-Feb-21 14:49 34.295042 -119.648681 103 2912ft 121kts
09-Feb-21 14:50 34.287729 -119.610915 108 3036ft 113kts
09-Feb-21 14:51 34.277952 -119.572914 101 3006ft 121kts
09-Feb-21 14:52 34.268518 -119.533976 105 3038ft 121kts
09-Feb-21 14:53 34.266956 -119.493881 92 3070ft 124kts
09-Feb-21 14:54 34.263428 -119.452985 92 3134ft 119kts
09-Feb-21 14:55 34.259071 -119.412234 104 3040ft 127kts
09-Feb-21 14:56 34.259156 -119.372231 71 3285ft 119kts
09-Feb-21 14:57 34.267575 -119.333761 68 3893ft 118kts
09-Feb-21 14:58 34.274180 -119.302597 81 4090ft 124kts
09-Feb-21 14:59 34.279852 -119.272099 78 4147ft 129kts
09-Feb-21 15:00 34.283178 -119.244861 81 4179ft 135kts
09-Feb-21 15:01 34.287197 -119.217677 80 4155ft 138kts
09-Feb-21 15:01 34.289811 -119.192071 85 4064ft 140kts
09-Feb-21 15:03 34.292139 -119.157330 88 3991ft 133kts
09-Feb-21 15:04 34.293219 -119.124323 95 3974ft 127kts
09-Feb-21 15:05 34.293732 -119.090459 93 3909ft 125kts
09-Feb-21 15:06 34.293062 -119.055073 91 3873ft 126kts
09-Feb-21 15:06 34.293826 -119.019885 90 3946ft 123kts
09-Feb-21 15:07 34.294372 -118.967068 90 3966ft 127kts
09-Feb-21 15:09 34.294025 -118.902617 92 3997ft 129kts
09-Feb-21 15:09 34.292972 -118.862215 89 4031ft 128kts
09-Feb-21 15:10 34.280183 -118.806403 173 4001ft 123kts
09-Feb-21 15:11 34.245673 -118.798927 176 4056ft 117kts
09-Feb-21 15:12 34.219968 -118.813856 258 3947ft 116kts
09-Feb-21 15:13 34.200868 -118.858136 271 3920ft 115kts
09-Feb-21 15:14 34.197703 -118.894780 268 3956ft 109kts
09-Feb-21 15:15 34.198477 -118.931802 269 4019ft 109kts
09-Feb-21 15:16 34.198029 -118.968708 264 3854ft 110kts
09-Feb-21 15:17 34.199314 -119.007089 279 3263ft 114kts
09-Feb-21 15:18 34.198860 -119.045325 269 2583ft 104kts
09-Feb-21 15:19 34.200298 -119.081430 271 1932ft 104kts
09-Feb-21 15:20 34.200374 -119.122136 270 1237ft 97kts
09-Feb-21 15:21 34.200717 -119.152307 271 855ft 84kts
09-Feb-21 15:22 34.200638 -119.179713 269 399ft 79kts
09-Feb-21 15:23 34.200757 -119.203745 270 39ft 49kts
09-Feb-21 15:24 34.200057 -119.211322 178 33ft 0kts
09-Feb-21 15:25 34.199809 -119.208388 90 36ft 17kts
09-Feb-21 15:26 34.199009 -119.205932 183 37ft 3kts
09-Feb-21 15:27 34.198922 -119.205718 4 38ft 0kts
09-Feb-21 15:28 34.198922 -119.205718 4 38ft 0kts
09-Feb-21 15:29 34.198922 -119.205718 4 38ft 0kts
09-Feb-21 15:30 34.198922 -119.205718 4 38ft 0kts
09-Feb-21 15:31 34.198922 -119.205718 4 38ft 0kts

Navigation Log

Ident Type
Flight plan parsing failed, navigation log unavailable